createdAt,value
2018-08-04T00:00:42.573Z,14.40
2018-08-04T00:03:11.262Z,14.33
2018-08-04T00:05:39.912Z,15.40
2018-08-04T00:08:08.589Z,14.90
2018-08-04T00:10:37.839Z,14.10
2018-08-04T00:13:07.150Z,14.83
2018-08-04T00:15:35.793Z,15.67
2018-08-04T00:18:04.424Z,14.80
2018-08-04T00:20:33.146Z,14.00
2018-08-04T00:23:01.845Z,14.15
2018-08-04T00:25:31.177Z,16.30
2018-08-04T00:27:59.802Z,15.20
2018-08-04T00:30:28.447Z,15.70
2018-08-04T00:32:56.989Z,14.60
2018-08-04T00:35:25.591Z,14.33
2018-08-04T00:37:54.274Z,15.47
2018-08-04T00:40:23.757Z,15.10
2018-08-04T00:42:52.434Z,15.50
2018-08-04T00:45:21.102Z,14.47
2018-08-04T00:47:50.234Z,16.40
2018-08-04T00:50:19.669Z,15.20
2018-08-04T00:52:48.293Z,15.23
2018-08-04T00:55:16.928Z,14.33
2018-08-04T00:57:45.564Z,15.13
2018-08-04T01:00:14.372Z,15.30
2018-08-04T01:02:43.037Z,15.48
2018-08-04T01:05:11.855Z,15.80
2018-08-04T01:07:40.564Z,15.60
2018-08-04T01:10:09.269Z,15.60
2018-08-04T01:12:38.042Z,14.97
2018-08-04T01:15:06.801Z,14.47
2018-08-04T01:17:36.082Z,14.93
2018-08-04T01:20:05.609Z,15.53
2018-08-04T01:22:36.073Z,15.93
2018-08-04T01:25:05.674Z,15.20
2018-08-04T01:27:34.513Z,14.90
2018-08-04T01:30:03.948Z,14.37
2018-08-04T01:32:32.737Z,15.27
2018-08-04T01:35:01.489Z,14.83
2018-08-04T01:37:30.407Z,15.00
2018-08-04T01:40:00.203Z,16.00
2018-08-04T01:42:28.825Z,15.07
2018-08-04T01:44:57.457Z,16.15
2018-08-04T01:47:26.126Z,16.10
2018-08-04T01:49:54.848Z,15.35
2018-08-04T01:52:23.668Z,15.73
2018-08-04T01:54:52.389Z,14.70
2018-08-04T01:57:21.020Z,16.00
2018-08-04T01:59:50.179Z,15.47
2018-08-04T02:02:19.063Z,14.95
2018-08-04T02:04:47.791Z,16.77
2018-08-04T02:07:16.443Z,15.48
2018-08-04T02:09:45.180Z,15.23
2018-08-04T02:12:14.018Z,16.77
2018-08-04T02:14:42.972Z,15.80
2018-08-04T02:17:11.558Z,16.37
2018-08-04T02:19:40.224Z,16.27
2018-08-04T02:22:08.947Z,15.72
2018-08-04T02:24:37.710Z,16.15
2018-08-04T02:27:06.353Z,16.15
2018-08-04T02:29:35.068Z,16.33
2018-08-04T02:32:03.818Z,17.27
2018-08-04T02:34:32.653Z,14.80
2018-08-04T02:37:01.287Z,17.10
2018-08-04T02:39:30.108Z,15.53
2018-08-04T02:41:58.849Z,15.60
2018-08-04T02:44:27.634Z,18.17
2018-08-04T02:46:56.271Z,16.63
2018-08-04T02:49:24.943Z,18.17
2018-08-04T02:51:53.633Z,16.80
2018-08-04T02:54:23.189Z,15.90
2018-08-04T02:56:51.789Z,16.77
2018-08-04T02:59:20.444Z,17.25
2018-08-04T03:01:49.108Z,15.80
2018-08-04T03:04:17.879Z,17.00
2018-08-04T03:06:46.523Z,17.20
2018-08-04T03:09:16.076Z,17.07
2018-08-04T03:11:44.729Z,16.47
2018-08-04T03:14:13.285Z,18.33
2018-08-04T03:16:41.980Z,17.00
2018-08-04T03:19:10.598Z,17.93
2018-08-04T03:21:39.732Z,17.03
2018-08-04T03:24:08.311Z,15.10
2018-08-04T03:26:36.871Z,16.20
2018-08-04T03:29:06.204Z,17.87
2018-08-04T03:31:35.652Z,17.80
2018-08-04T03:34:04.280Z,15.83
2018-08-04T03:36:33.094Z,16.40
2018-08-04T03:39:01.789Z,16.17
2018-08-04T03:41:30.355Z,18.23
2018-08-04T03:43:59.005Z,16.62
2018-08-04T03:46:29.248Z,17.23
2018-08-04T03:48:58.029Z,17.93
2018-08-04T03:51:26.917Z,17.30
2018-08-04T03:53:56.168Z,16.30
2018-08-04T03:56:25.862Z,17.20
2018-08-04T03:58:55.173Z,17.60
2018-08-04T04:01:23.784Z,17.40
2018-08-04T04:03:52.458Z,16.47
2018-08-04T04:06:21.064Z,17.53
2018-08-04T04:08:49.859Z,18.15
2018-08-04T04:11:18.495Z,17.43
2018-08-04T04:13:47.269Z,18.07
2018-08-04T04:16:16.035Z,17.00
2018-08-04T04:18:44.840Z,16.67
2018-08-04T04:21:13.442Z,16.50
2018-08-04T04:23:42.214Z,17.30
2018-08-04T04:26:10.934Z,18.20
2018-08-04T04:28:39.624Z,17.07
2018-08-04T04:31:09.069Z,17.33
2018-08-04T04:33:37.729Z,16.07
2018-08-04T04:36:06.379Z,16.90
2018-08-04T04:38:35.004Z,16.13
2018-08-04T04:41:03.649Z,16.17
2018-08-04T04:43:32.239Z,15.40
2018-08-04T04:46:00.813Z,16.70
2018-08-04T04:48:29.633Z,17.30
2018-08-04T04:50:58.975Z,16.27
2018-08-04T04:53:28.272Z,16.10
2018-08-04T04:55:57.246Z,15.25
2018-08-04T04:58:25.905Z,15.43
2018-08-04T05:00:54.672Z,15.77
2018-08-04T05:03:23.276Z,14.90
2018-08-04T05:05:52.068Z,14.33
2018-08-04T05:08:20.636Z,15.03
2018-08-04T05:10:49.326Z,19.57
2018-08-04T05:13:18.520Z,14.10
2018-08-04T05:15:47.131Z,14.03
2018-08-04T05:18:16.055Z,13.87
2018-08-04T05:20:45.276Z,14.93
2018-08-04T05:23:14.744Z,13.07
2018-08-04T05:25:43.484Z,14.13
2018-08-04T05:28:12.256Z,11.53
2018-08-04T05:30:41.064Z,13.20
2018-08-04T05:33:09.761Z,11.77
2018-08-04T05:35:38.354Z,12.73
2018-08-04T05:38:07.140Z,12.90
2018-08-04T05:40:36.491Z,12.90
2018-08-04T05:43:05.144Z,12.90
2018-08-04T05:45:33.892Z,15.07
2018-08-04T05:48:02.732Z,12.17
2018-08-04T05:50:31.395Z,12.43
2018-08-04T05:52:59.986Z,13.17
2018-08-04T05:55:28.867Z,13.47
2018-08-04T05:57:57.566Z,11.78
2018-08-04T06:00:26.276Z,13.27
2018-08-04T06:02:55.694Z,11.80
2018-08-04T06:05:24.871Z,12.70
2018-08-04T06:07:53.662Z,12.50
2018-08-04T06:10:22.236Z,12.27
2018-08-04T06:12:51.521Z,13.27
2018-08-04T06:15:20.132Z,13.17
2018-08-04T06:17:48.890Z,12.10
2018-08-04T06:20:18.396Z,12.20
2018-08-04T06:22:47.068Z,12.30
2018-08-04T06:25:16.598Z,11.60
2018-08-04T06:27:45.405Z,12.17
2018-08-04T06:30:14.089Z,10.90
2018-08-04T06:32:43.359Z,11.73
2018-08-04T06:35:12.429Z,11.23
2018-08-04T06:37:41.301Z,11.60
2018-08-04T06:40:09.986Z,11.50
2018-08-04T06:42:38.747Z,11.35
2018-08-04T06:45:07.435Z,13.47
2018-08-04T06:47:36.233Z,13.30
2018-08-04T06:50:05.037Z,14.23
2018-08-04T06:52:33.776Z,13.00
2018-08-04T06:55:02.400Z,13.43
2018-08-04T06:57:31.862Z,13.63
2018-08-04T07:00:01.020Z,13.00
2018-08-04T07:02:29.712Z,11.50
2018-08-04T07:04:59.934Z,13.13
2018-08-04T07:07:28.560Z,50.50
2018-08-04T07:09:57.366Z,11.38
2018-08-04T07:12:26.804Z,10.07
2018-08-04T07:14:55.534Z,9.43
2018-08-04T07:17:24.390Z,9.97
2018-08-04T07:19:53.731Z,9.40
2018-08-04T07:22:23.055Z,9.17
2018-08-04T07:24:51.671Z,9.63
2018-08-04T07:27:20.355Z,8.70
2018-08-04T07:29:49.657Z,8.93
2018-08-04T07:32:18.435Z,7.87
2018-08-04T07:34:47.012Z,8.07
2018-08-04T07:37:16.352Z,7.90
2018-08-04T07:39:45.121Z,7.57
2018-08-04T07:42:13.737Z,7.25
2018-08-04T07:44:42.547Z,7.87
2018-08-04T07:47:12.177Z,7.30
2018-08-04T07:49:40.815Z,7.15
2018-08-04T07:52:10.704Z,6.58
2018-08-04T07:54:39.346Z,6.50
2018-08-04T07:57:07.984Z,5.92
2018-08-04T07:59:37.490Z,6.33
2018-08-04T08:02:06.700Z,5.67
2018-08-04T08:04:35.355Z,5.92
2018-08-04T08:07:04.885Z,6.33
2018-08-04T08:09:33.474Z,5.60
2018-08-04T08:12:02.368Z,5.35
2018-08-04T08:14:30.991Z,5.42
2018-08-04T08:16:59.816Z,5.42
2018-08-04T08:19:28.645Z,5.27
2018-08-04T08:21:57.315Z,4.80
2018-08-04T08:24:25.957Z,4.83
2018-08-04T08:26:54.786Z,4.80
2018-08-04T08:29:23.421Z,4.62
2018-08-04T08:31:52.232Z,4.40
2018-08-04T08:34:20.926Z,4.00
2018-08-04T08:36:49.682Z,3.70
2018-08-04T08:39:18.377Z,4.08
2018-08-04T08:41:48.047Z,3.15
2018-08-04T08:44:16.838Z,3.83
2018-08-04T08:46:45.724Z,3.20
2018-08-04T08:49:14.541Z,4.35
2018-08-04T08:51:44.521Z,3.52
2018-08-04T08:54:13.420Z,3.27
2018-08-04T08:56:42.127Z,3.10
2018-08-04T08:59:10.889Z,2.92
2018-08-04T09:01:39.599Z,3.00
2018-08-04T09:04:08.536Z,2.90
2018-08-04T09:06:37.881Z,3.15
2018-08-04T09:09:08.631Z,2.60
2018-08-04T09:11:37.584Z,2.50
2018-08-04T09:14:07.042Z,3.00
2018-08-04T09:16:35.772Z,3.22
2018-08-04T09:19:04.585Z,3.30
2018-08-04T09:21:33.227Z,3.42
2018-08-04T09:24:01.920Z,3.90
2018-08-04T09:26:30.673Z,3.50
2018-08-04T09:28:59.484Z,2.83
2018-08-04T09:31:28.204Z,2.30
2018-08-04T09:33:56.932Z,2.02
2018-08-04T09:36:25.618Z,2.10
2018-08-04T09:38:54.431Z,2.20
2018-08-04T09:41:23.236Z,2.05
2018-08-04T09:43:51.976Z,2.00
2018-08-04T09:46:20.662Z,1.87
2018-08-04T09:48:49.326Z,2.45
2018-08-04T09:51:18.784Z,2.08
2018-08-04T09:53:47.486Z,2.10
2018-08-04T09:56:16.926Z,1.98
2018-08-04T09:58:46.313Z,2.30
2018-08-04T10:01:20.293Z,1.60
2018-08-04T10:03:48.944Z,1.30
2018-08-04T10:06:17.823Z,1.30
2018-08-04T10:08:47.568Z,2.47
2018-08-04T10:11:16.321Z,1.70
2018-08-04T10:13:45.767Z,1.70
2018-08-04T10:16:14.628Z,1.67
2018-08-04T10:18:43.527Z,1.47
2018-08-04T10:21:12.472Z,1.60
2018-08-04T10:23:41.211Z,1.40
2018-08-04T10:26:10.344Z,1.67
2018-08-04T10:28:38.892Z,1.22
2018-08-04T10:31:07.710Z,1.20
2018-08-04T10:33:36.556Z,1.07
2018-08-04T10:41:01.483Z,1.40
2018-08-04T10:45:58.582Z,1.45
2018-08-04T10:58:19.710Z,0.90
2018-08-04T11:00:49.139Z,1.07
2018-08-04T11:03:18.085Z,1.07
2018-08-04T11:05:46.846Z,0.80
2018-08-04T11:08:15.584Z,1.07
2018-08-04T11:10:44.293Z,1.00
2018-08-04T11:13:13.057Z,0.60
2018-08-04T11:15:41.779Z,0.87
2018-08-04T11:18:10.576Z,0.80
2018-08-04T11:20:39.251Z,0.88
2018-08-04T11:23:08.013Z,0.80
2018-08-04T11:25:37.225Z,0.98
2018-08-04T11:28:06.512Z,0.85
2018-08-04T11:30:35.278Z,0.85
2018-08-04T11:33:03.989Z,0.80
2018-08-04T11:35:32.638Z,0.80
2018-08-04T11:38:01.425Z,0.95
2018-08-04T11:40:30.125Z,0.80
2018-08-04T11:42:58.918Z,0.90
2018-08-04T11:45:28.262Z,0.60
2018-08-04T11:47:57.051Z,0.80
2018-08-04T11:54:49.081Z,0.70
2018-08-04T11:57:18.006Z,0.90
2018-08-04T11:59:46.649Z,0.70
2018-08-04T12:02:15.344Z,0.60
2018-08-04T12:04:43.990Z,0.80
2018-08-04T12:07:13.333Z,1.00
2018-08-04T12:09:42.127Z,0.70
2018-08-04T12:12:10.804Z,0.60
2018-08-04T12:14:39.451Z,0.70
2018-08-04T12:17:09.051Z,0.57
2018-08-04T12:19:38.402Z,1.00
2018-08-04T12:22:07.473Z,0.82
2018-08-04T12:24:36.762Z,0.80
2018-08-04T12:27:05.513Z,0.80
2018-08-04T12:29:34.138Z,0.70
2018-08-04T12:32:03.043Z,0.72
2018-08-04T12:34:31.668Z,0.78
2018-08-04T12:37:00.276Z,0.78
2018-08-04T12:39:29.035Z,0.78
2018-08-04T12:41:58.483Z,0.80
2018-08-04T12:44:27.738Z,0.70
2018-08-04T12:46:56.739Z,1.00
2018-08-04T12:49:25.389Z,0.70
2018-08-04T12:51:54.280Z,1.00
2018-08-04T12:54:23.099Z,0.77
2018-08-04T12:56:51.679Z,0.82
2018-08-04T12:59:20.719Z,0.80
2018-08-04T13:01:49.316Z,1.00
2018-08-04T13:04:18.210Z,0.70
2018-08-04T13:06:46.840Z,1.12
2018-08-04T13:09:15.527Z,0.80
2018-08-04T13:11:44.132Z,0.98
2018-08-04T13:14:13.372Z,1.15
2018-08-04T13:16:42.166Z,1.02
2018-08-04T13:19:11.360Z,1.30
2018-08-04T13:21:39.997Z,1.67
2018-08-04T13:24:08.861Z,1.40
2018-08-04T13:26:37.471Z,1.22
2018-08-04T13:29:06.258Z,1.40
2018-08-04T13:31:34.910Z,1.47
2018-08-04T13:34:03.743Z,1.35
2018-08-04T13:36:32.385Z,1.50
2018-08-04T13:39:01.324Z,1.40
2018-08-04T13:41:30.537Z,1.63
2018-08-04T13:43:59.222Z,1.67
2018-08-04T13:46:28.902Z,2.70
2018-08-04T13:48:57.609Z,2.80
2018-08-04T13:51:26.966Z,2.80
2018-08-04T13:53:55.649Z,2.90
2018-08-04T13:56:24.983Z,2.80
2018-08-04T13:58:54.425Z,3.47
2018-08-04T14:01:23.836Z,3.30
2018-08-04T14:03:52.738Z,3.50
2018-08-04T14:06:22.188Z,3.30
2018-08-04T14:08:51.214Z,3.40
2018-08-04T14:11:20.134Z,3.90
2018-08-04T14:13:48.778Z,3.77
2018-08-04T14:16:17.454Z,4.00
2018-08-04T14:18:46.322Z,4.75
2018-08-04T14:21:15.599Z,4.00
2018-08-04T14:23:44.268Z,3.85
2018-08-04T14:26:12.969Z,4.03
2018-08-04T14:28:41.777Z,3.67
2018-08-04T14:31:10.426Z,4.55
2018-08-04T14:33:39.741Z,4.10
2018-08-04T14:36:08.570Z,4.47
2018-08-04T14:38:37.283Z,4.90
2018-08-04T14:41:06.223Z,3.30
2018-08-04T14:43:34.930Z,3.60
2018-08-04T14:46:03.872Z,4.08
2018-08-04T14:48:33.211Z,4.00
2018-08-04T14:51:01.854Z,3.92
2018-08-04T14:53:31.007Z,3.75
2018-08-04T14:55:59.637Z,9.40
2018-08-04T14:58:28.303Z,3.90
2018-08-04T15:00:57.159Z,4.80
2018-08-04T15:03:25.850Z,4.53
2018-08-04T15:05:54.745Z,3.90
2018-08-04T15:08:23.419Z,4.10
2018-08-04T15:10:52.133Z,4.20
2018-08-04T15:13:21.409Z,4.33
2018-08-04T15:15:50.276Z,4.30
2018-08-04T15:18:18.889Z,4.23
2018-08-04T15:20:48.139Z,4.13
2018-08-04T15:23:16.923Z,10.20
2018-08-04T15:25:45.568Z,4.60
2018-08-04T15:28:15.127Z,5.03
2018-08-04T15:30:44.014Z,4.63
2018-08-04T15:33:13.394Z,4.23
2018-08-04T15:35:42.103Z,4.00
2018-08-04T15:38:10.825Z,4.83
2018-08-04T15:40:39.463Z,4.43
2018-08-04T15:43:08.814Z,4.10
2018-08-04T15:45:37.453Z,4.67
2018-08-04T15:48:06.293Z,4.40
2018-08-04T15:50:34.880Z,4.70
2018-08-04T15:53:04.240Z,5.80
2018-08-04T15:55:32.890Z,5.30
2018-08-04T15:58:02.423Z,4.80
2018-08-04T16:00:31.785Z,5.20
2018-08-04T16:03:00.528Z,4.77
2018-08-04T16:05:30.000Z,6.13
2018-08-04T16:07:59.324Z,6.17
2018-08-04T16:10:28.064Z,4.73
2018-08-04T16:12:56.738Z,5.47
2018-08-04T16:15:25.962Z,5.63
2018-08-04T16:17:54.677Z,6.03
2018-08-04T16:20:23.469Z,5.50
2018-08-04T16:22:52.254Z,5.43
2018-08-04T16:25:20.918Z,5.13
2018-08-04T16:27:50.344Z,6.03
2018-08-04T16:30:19.319Z,5.77
2018-08-04T16:32:48.026Z,5.57
2018-08-04T16:35:16.709Z,6.10
2018-08-04T16:37:46.134Z,15.53
2018-08-04T16:40:14.863Z,6.30
2018-08-04T16:42:43.538Z,7.90
2018-08-04T16:45:12.998Z,6.50
2018-08-04T16:47:41.684Z,7.40
2018-08-04T16:50:10.277Z,6.83
2018-08-04T16:52:39.060Z,5.90
2018-08-04T16:55:08.464Z,7.00
2018-08-04T16:57:37.030Z,6.50
2018-08-04T17:00:05.799Z,6.37
2018-08-04T17:02:35.004Z,12.43
2018-08-04T17:05:04.621Z,12.87
2018-08-04T17:07:34.000Z,8.27
2018-08-04T17:10:02.650Z,6.53
2018-08-04T17:12:31.353Z,6.77
2018-08-04T17:15:00.655Z,5.93
2018-08-04T17:17:29.575Z,6.23
2018-08-04T17:19:58.398Z,5.35
2018-08-04T17:22:27.113Z,6.90
2018-08-04T17:24:56.629Z,6.83
2018-08-04T17:27:25.682Z,6.20
2018-08-04T17:29:54.985Z,5.70
2018-08-04T17:32:23.715Z,5.87
2018-08-04T17:34:52.508Z,6.13
2018-08-04T17:37:21.189Z,8.07
2018-08-04T17:39:49.789Z,5.83
2018-08-04T17:42:18.608Z,5.40
2018-08-04T17:44:47.249Z,5.53
2018-08-04T17:47:17.058Z,5.90
2018-08-04T17:49:45.708Z,5.97
2018-08-04T17:52:14.314Z,5.70
2018-08-04T17:54:43.155Z,5.90
2018-08-04T17:57:12.817Z,6.50
2018-08-04T17:59:41.575Z,5.80
2018-08-04T18:02:10.290Z,6.70
2018-08-04T18:04:39.017Z,8.07
2018-08-04T18:07:08.356Z,6.30
2018-08-04T18:09:37.075Z,6.50
2018-08-04T18:12:05.746Z,7.20
2018-08-04T18:14:34.500Z,6.20
2018-08-04T18:17:03.215Z,6.20
2018-08-04T18:19:32.488Z,6.27
2018-08-04T18:22:01.270Z,6.00
2018-08-04T18:24:29.935Z,6.60
2018-08-04T18:26:59.197Z,6.22
2018-08-04T18:29:27.931Z,5.37
2018-08-04T18:31:56.586Z,6.40
2018-08-04T18:34:25.436Z,6.50
2018-08-04T18:36:54.039Z,6.03
2018-08-04T18:39:22.729Z,7.70
2018-08-04T18:41:51.416Z,7.67
2018-08-04T18:44:20.743Z,8.73
2018-08-04T18:46:49.405Z,8.00
2018-08-04T18:49:18.248Z,7.77
2018-08-04T18:51:47.043Z,8.00
2018-08-04T18:54:15.703Z,9.57
2018-08-04T18:56:45.036Z,7.30
2018-08-04T18:59:14.614Z,6.90
2018-08-04T19:01:43.308Z,7.47
2018-08-04T19:04:12.845Z,7.23
2018-08-04T19:06:41.939Z,8.70
2018-08-04T19:09:11.645Z,8.60
2018-08-04T19:11:41.276Z,8.10
2018-08-04T19:14:10.773Z,8.07
2018-08-04T19:16:39.577Z,8.63
2018-08-04T19:19:09.216Z,7.97
2018-08-04T19:21:38.096Z,7.47
2018-08-04T19:24:07.572Z,8.13
2018-08-04T19:26:36.406Z,8.93
2018-08-04T19:29:05.802Z,8.00
2018-08-04T19:31:35.060Z,7.90
2018-08-04T19:34:03.801Z,8.13
2018-08-04T19:36:32.721Z,9.27
2018-08-04T19:39:01.401Z,7.85
2018-08-04T19:42:33.470Z,8.70
2018-08-04T19:45:02.278Z,15.13
2018-08-04T19:47:30.977Z,9.47
2018-08-04T19:50:00.081Z,10.20
2018-08-04T19:52:28.925Z,8.27
2018-08-04T19:54:57.940Z,10.40
2018-08-04T19:57:27.410Z,9.37
2018-08-04T19:59:56.565Z,8.53
2018-08-04T20:02:25.676Z,9.08
2018-08-04T20:04:54.395Z,9.70
2018-08-04T20:07:23.140Z,9.87
2018-08-04T20:09:51.860Z,10.40
2018-08-04T20:12:20.740Z,8.50
2018-08-04T20:14:50.460Z,8.80
2018-08-04T20:17:20.250Z,9.90
2018-08-04T20:19:48.975Z,10.20
2018-08-04T20:22:18.411Z,9.80
2018-08-04T20:24:47.596Z,10.47
2018-08-04T20:27:16.531Z,10.20
2018-08-04T20:29:46.281Z,10.17
2018-08-04T20:32:15.150Z,10.03
2018-08-04T20:34:44.044Z,9.30
2018-08-04T20:37:13.330Z,9.73
2018-08-04T20:39:42.593Z,9.80
2018-08-04T20:42:11.771Z,9.93
2018-08-04T20:44:40.749Z,12.03
2018-08-04T20:47:09.614Z,11.97
2018-08-04T20:49:38.462Z,11.50
2018-08-04T20:52:07.526Z,11.50
2018-08-04T20:54:36.668Z,11.53
2018-08-04T20:57:06.135Z,10.63
2018-08-04T20:59:35.285Z,11.20
2018-08-04T21:02:05.597Z,12.07
2018-08-04T21:04:35.682Z,11.80
2018-08-04T21:07:05.502Z,12.17
2018-08-04T21:09:34.271Z,10.87
2018-08-04T21:12:03.125Z,11.07
2018-08-04T21:14:31.766Z,11.15
2018-08-04T21:17:00.976Z,11.37
2018-08-04T21:19:29.760Z,10.63
2018-08-04T21:21:58.418Z,10.77
2018-08-04T21:24:27.579Z,14.73
2018-08-04T21:26:56.746Z,11.23
2018-08-04T21:29:25.590Z,11.13
2018-08-04T21:31:55.123Z,11.70
2018-08-04T21:34:23.828Z,11.37
2018-08-04T21:36:52.710Z,11.10
2018-08-04T21:39:21.612Z,11.33
2018-08-04T21:41:50.223Z,11.10
2018-08-04T21:44:18.977Z,12.10
2018-08-04T21:46:50.610Z,10.95
2018-08-04T21:49:19.754Z,12.23
2018-08-04T21:51:49.628Z,12.27
2018-08-04T21:54:19.913Z,11.30
2018-08-04T21:56:48.175Z,11.23
2018-08-04T21:59:16.761Z,12.33
2018-08-04T22:01:50.712Z,10.60
2018-08-04T22:04:19.930Z,11.50
2018-08-04T22:07:59.159Z,10.40
2018-08-04T22:10:28.013Z,11.78
2018-08-04T22:12:57.018Z,10.50
2018-08-04T22:15:25.942Z,10.55
2018-08-04T22:17:54.565Z,11.10
2018-08-04T22:20:23.886Z,10.90
2018-08-04T22:22:52.932Z,11.12
2018-08-04T22:25:22.961Z,12.37
2018-08-04T22:27:51.868Z,10.73
2018-08-04T22:30:21.450Z,11.10
2018-08-04T22:32:50.579Z,11.20
2018-08-04T22:35:19.792Z,11.67
2018-08-04T22:37:48.487Z,11.30
2018-08-04T22:40:17.946Z,12.33
2018-08-04T22:42:46.624Z,12.00
2018-08-04T22:45:58.862Z,13.08
2018-08-04T22:48:27.604Z,13.20
2018-08-04T22:50:56.264Z,14.70
2018-08-04T22:53:24.862Z,13.23
2018-08-04T22:55:53.631Z,16.60
2018-08-04T22:58:23.071Z,21.20
2018-08-04T23:00:52.675Z,23.87
2018-08-04T23:03:21.242Z,23.60
2018-08-04T23:05:50.164Z,29.33
2018-08-04T23:08:19.417Z,21.00
2018-08-04T23:10:48.057Z,25.80
2018-08-04T23:13:17.166Z,23.70
2018-08-04T23:15:46.362Z,21.10
2018-08-04T23:18:15.021Z,22.93
2018-08-04T23:20:43.820Z,24.23
2018-08-04T23:23:13.669Z,24.55
2018-08-04T23:25:42.299Z,25.13
2018-08-04T23:28:11.292Z,24.40
2018-08-04T23:30:39.886Z,23.50
2018-08-04T23:33:08.516Z,24.50
2018-08-04T23:35:37.252Z,23.77
2018-08-04T23:38:06.716Z,24.20
2018-08-04T23:40:35.300Z,21.53
2018-08-04T23:43:03.931Z,23.20
2018-08-04T23:45:33.465Z,24.70
2018-08-04T23:48:02.114Z,22.73
2018-08-04T23:50:30.737Z,22.20
2018-08-04T23:52:59.394Z,19.70
2018-08-04T23:55:28.090Z,21.25
2018-08-04T23:57:56.690Z,22.63
